Aérodrome :
LOGIN :

S'inscrire | Disclaimer

   EN    FR    IT 

 










Légende :    VFR   VFR Marginal   IFR   IFR Intensif   IFR Très Intensif
Visi : 
Plafond : 
>= 8 km
>= 3000ft
5 à 8 km
1000 à 3000 ft
1500m à 5 km
500 à 1000 ft
800 à 1500m
200 à 500 ft
< 800m
< 200 ft
Symboles :   Orages  Brouillard  Fortes neiges  Fortes précipitations  Vent > 20 kt
SIGMETs :   Divers  Orages  Givrage  Turbulence  Onde Orograph.  Cendres Volcan.







- Altitude de l'aérodrome : 584 ft
- Voir les cartes d'approche


LFPV - Villacoublay Vélizy

DERNIER METAR :
  • 180330Z AUTO 18005KT CAVOK 13/11 Q1013 TEMPO 0600 BCFG

METARs EXPIRÉS :
  • 180300Z AUTO 17004KT CAVOK 13/11 Q1014 TEMPO 0600 BCFG
  • 180230Z AUTO 16003KT CAVOK 13/12 Q1014 TEMPO 0600 BCFG
  • 180200Z AUTO 17003KT CAVOK 14/12 Q1014
  • 180130Z AUTO 18003KT CAVOK 14/12 Q1014 TEMPO 4000 BR
  • 180100Z AUTO 19003KT 8000 NSC 14/13 Q1014 TEMPO 4000 BR

TAF TAF LFPV
Valide du 18 à 03h jusqu'au 19 à 03h UTC


180200Z 1803/1903 12005KT CAVOK
PROB40
TEMPO 1803/1805 4000 BR
PROB30
TEMPO 1803/1805 0600 BCFG
Pas de NOTAMs connus pour ce terrain.



MET'MAP, la Météo Aéronautique d'un coup d'oeil ! - Copyright ORBIFLY Décembre 2007 - Disclaimer

ORBIFLY MET'MAP TEAM :

Programmation & Développement : Alexandra Zaïnal
Conception & Développement : Baudouin d'Aumeries
Co-Programmation & Développement : Marc-Olivier Méhu
Soutien technique & logistique : Manuel Goepfert

Contact : metmap@orbifly.com




SOURCES & CREDITS :

   NOAA